sensor_id;sensor_type;location;lat;lon;timestamp;pressure;altitude;pressure_sealevel;temperature;humidity
63691;BME280;49837;57.280;27.070;2023-12-20T00:00:28;98221.89;;;1.29;100.0
63691;BME280;49837;57.280;27.070;2023-12-20T00:01:28;98215.55;;;1.26;100.0
63691;BME280;49837;57.280;27.070;2023-12-20T00:02:29;98220.23;;;1.23;100.0
63691;BME280;49837;57.280;27.070;2023-12-20T00:03:29;98214.36;;;1.24;100.0
63691;BME280;49837;57.280;27.070;2023-12-20T00:04:33;98209.12;;;1.16;100.0
63691;BME280;49837;57.280;27.070;2023-12-20T00:05:34;98208.23;;;1.3;100.0
63691;BME280;49837;57.280;27.070;2023-12-20T00:06:34;98208.54;;;1.34;100.0
63691;BME280;49837;57.280;27.070;2023-12-20T00:07:34;98204.36;;;1.3;100.0
63691;BME280;49837;57.280;27.070;2023-12-20T00:08:35;98202.06;;;1.3;100.0
63691;BME280;49837;57.280;27.070;2023-12-20T00:09:35;98202.6;;;1.36;100.0
63691;BME280;49837;57.280;27.070;2023-12-20T00:10:36;98197.11;;;1.34;100.0
63691;BME280;49837;57.280;27.070;2023-12-20T00:11:36;98200.07;;;1.32;100.0
63691;BME280;49837;57.280;27.070;2023-12-20T00:12:36;98201.95;;;1.32;100.0
63691;BME280;49837;57.280;27.070;2023-12-20T00:13:36;98200.0;;;1.35;100.0
63691;BME280;49837;57.280;27.070;2023-12-20T00:14:37;98199.85;;;1.37;100.0
63691;BME280;49837;57.280;27.070;2023-12-20T00:15:37;98199.81;;;1.32;100.0
63691;BME280;49837;57.280;27.070;2023-12-20T00:16:38;98200.73;;;1.28;100.0
63691;BME280;49837;57.280;27.070;2023-12-20T00:17:38;98202.14;;;1.28;100.0
63691;BME280;49837;57.280;27.070;2023-12-20T00:18:38;98206.36;;;1.29;100.0
63691;BME280;49837;57.280;27.070;2023-12-20T00:19:39;98203.66;;;1.29;100.0
63691;BME280;49837;57.280;27.070;2023-12-20T00:20:39;98207.8;;;1.24;100.0
63691;BME280;49837;57.280;27.070;2023-12-20T00:21:39;98211.71;;;1.19;100.0
63691;BME280;49837;57.280;27.070;2023-12-20T00:22:40;98212.41;;;1.19;100.0
63691;BME280;49837;57.280;27.070;2023-12-20T00:23:40;98213.61;;;1.21;100.0
63691;BME280;49837;57.280;27.070;2023-12-20T00:24:40;98215.41;;;1.25;100.0
63691;BME280;49837;57.280;27.070;2023-12-20T00:25:41;98214.67;;;1.29;100.0
63691;BME280;49837;57.280;27.070;2023-12-20T00:26:41;98211.83;;;1.31;100.0
63691;BME280;49837;57.280;27.070;2023-12-20T00:27:41;98211.97;;;1.28;100.0
63691;BME280;49837;57.280;27.070;2023-12-20T00:28:42;98214.69;;;1.18;100.0
63691;BME280;49837;57.280;27.070;2023-12-20T00:29:42;98212.16;;;1.16;100.0
63691;BME280;49837;57.280;27.070;2023-12-20T00:30:42;98214.64;;;1.2;100.0
63691;BME280;49837;57.280;27.070;2023-12-20T00:31:43;98216.66;;;1.21;100.0
63691;BME280;49837;57.280;27.070;2023-12-20T00:32:43;98214.71;;;1.23;100.0
63691;BME280;49837;57.280;27.070;2023-12-20T00:33:44;98213.68;;;1.25;100.0
63691;BME280;49837;57.280;27.070;2023-12-20T00:34:44;98216.2;;;1.2;100.0
63691;BME280;49837;57.280;27.070;2023-12-20T00:35:44;98217.71;;;1.11;100.0
63691;BME280;49837;57.280;27.070;2023-12-20T00:36:45;98219.08;;;1.16;100.0
63691;BME280;49837;57.280;27.070;2023-12-20T00:37:45;98212.86;;;1.22;100.0
63691;BME280;49837;57.280;27.070;2023-12-20T00:38:45;98205.87;;;1.22;100.0
63691;BME280;49837;57.280;27.070;2023-12-20T00:39:46;98210.94;;;1.19;100.0
63691;BME280;49837;57.280;27.070;2023-12-20T00:40:46;98211.27;;;1.13;100.0
63691;BME280;49837;57.280;27.070;2023-12-20T00:41:46;98211.26;;;1.06;100.0
63691;BME280;49837;57.280;27.070;2023-12-20T00:42:47;98207.74;;;1.13;100.0
63691;BME280;49837;57.280;27.070;2023-12-20T00:43:47;98209.5;;;1.17;100.0
63691;BME280;49837;57.280;27.070;2023-12-20T00:44:47;98208.61;;;1.17;100.0
63691;BME280;49837;57.280;27.070;2023-12-20T00:45:48;98210.61;;;1.16;100.0
63691;BME280;49837;57.280;27.070;2023-12-20T00:46:48;98207.18;;;1.08;100.0
63691;BME280;49837;57.280;27.070;2023-12-20T00:47:49;98207.73;;;1.05;100.0
63691;BME280;49837;57.280;27.070;2023-12-20T00:48:49;98207.24;;;0.99;100.0
63691;BME280;49837;57.280;27.070;2023-12-20T00:49:49;98205.48;;;0.93;100.0
63691;BME280;49837;57.280;27.070;2023-12-20T00:50:50;98203.23;;;0.94;100.0
63691;BME280;49837;57.280;27.070;2023-12-20T00:51:50;98205.27;;;0.91;100.0
63691;BME280;49837;57.280;27.070;2023-12-20T00:52:50;98197.77;;;0.81;100.0
63691;BME280;49837;57.280;27.070;2023-12-20T00:53:51;98199.78;;;0.79;100.0
63691;BME280;49837;57.280;27.070;2023-12-20T00:54:52;98193.88;;;0.79;100.0
63691;BME280;49837;57.280;27.070;2023-12-20T00:55:51;98196.0;;;0.75;100.0
63691;BME280;49837;57.280;27.070;2023-12-20T00:56:52;98194.03;;;0.72;100.0
63691;BME280;49837;57.280;27.070;2023-12-20T00:57:52;98193.95;;;0.68;100.0
63691;BME280;49837;57.280;27.070;2023-12-20T00:58:52;98194.91;;;0.66;100.0
63691;BME280;49837;57.280;27.070;2023-12-20T00:59:53;98195.64;;;0.66;100.0
63691;BME280;49837;57.280;27.070;2023-12-20T01:00:53;98196.95;;;0.69;100.0
63691;BME280;49837;57.280;27.070;2023-12-20T01:01:54;98194.46;;;0.66;100.0
63691;BME280;49837;57.280;27.070;2023-12-20T01:02:54;98189.38;;;0.66;100.0
63691;BME280;49837;57.280;27.070;2023-12-20T01:03:54;98189.78;;;0.67;100.0
63691;BME280;49837;57.280;27.070;2023-12-20T01:04:55;98194.17;;;0.76;100.0
63691;BME280;49837;57.280;27.070;2023-12-20T01:05:55;98195.31;;;0.81;100.0
63691;BME280;49837;57.280;27.070;2023-12-20T01:06:56;98194.26;;;0.84;100.0
63691;BME280;49837;57.280;27.070;2023-12-20T01:07:56;98189.5;;;0.81;100.0
63691;BME280;49837;57.280;27.070;2023-12-20T01:08:56;98192.36;;;0.85;100.0
63691;BME280;49837;57.280;27.070;2023-12-20T01:09:56;98194.27;;;0.87;100.0
63691;BME280;49837;57.280;27.070;2023-12-20T01:10:57;98194.73;;;0.85;100.0
63691;BME280;49837;57.280;27.070;2023-12-20T01:11:57;98194.8;;;0.89;100.0
63691;BME280;49837;57.280;27.070;2023-12-20T01:12:57;98191.76;;;0.96;100.0
63691;BME280;49837;57.280;27.070;2023-12-20T01:13:58;98194.62;;;1.04;100.0
63691;BME280;49837;57.280;27.070;2023-12-20T01:14:58;98192.03;;;1.07;100.0
63691;BME280;49837;57.280;27.070;2023-12-20T01:15:58;98183.98;;;1.1;100.0
63691;BME280;49837;57.280;27.070;2023-12-20T01:16:59;98185.03;;;1.07;100.0
63691;BME280;49837;57.280;27.070;2023-12-20T01:17:59;98187.77;;;1.09;100.0
63691;BME280;49837;57.280;27.070;2023-12-20T01:19:00;98188.64;;;1.11;100.0
63691;BME280;49837;57.280;27.070;2023-12-20T01:20:00;98191.93;;;1.04;100.0
63691;BME280;49837;57.280;27.070;2023-12-20T01:21:03;98193.75;;;0.99;100.0
63691;BME280;49837;57.280;27.070;2023-12-20T01:22:01;98189.68;;;1.02;100.0
63691;BME280;49837;57.280;27.070;2023-12-20T01:23:01;98190.89;;;1.09;100.0
63691;BME280;49837;57.280;27.070;2023-12-20T01:24:02;98189.8;;;1.07;100.0
63691;BME280;49837;57.280;27.070;2023-12-20T01:25:03;98186.8;;;1.13;100.0
63691;BME280;49837;57.280;27.070;2023-12-20T01:26:03;98186.58;;;1.14;100.0
63691;BME280;49837;57.280;27.070;2023-12-20T01:27:03;98183.34;;;1.16;100.0
63691;BME280;49837;57.280;27.070;2023-12-20T01:28:04;98184.54;;;1.17;100.0
63691;BME280;49837;57.280;27.070;2023-12-20T01:29:04;98182.34;;;1.18;100.0
63691;BME280;49837;57.280;27.070;2023-12-20T01:30:05;98181.84;;;1.24;100.0
63691;BME280;49837;57.280;27.070;2023-12-20T01:31:04;98182.28;;;1.26;100.0
63691;BME280;49837;57.280;27.070;2023-12-20T01:32:05;98181.53;;;1.27;100.0
63691;BME280;49837;57.280;27.070;2023-12-20T01:33:05;98182.69;;;1.23;100.0
63691;BME280;49837;57.280;27.070;2023-12-20T01:34:05;98176.79;;;1.29;100.0
63691;BME280;49837;57.280;27.070;2023-12-20T01:35:06;98179.55;;;1.33;100.0
63691;BME280;49837;57.280;27.070;2023-12-20T01:36:06;98176.62;;;1.3;100.0
63691;BME280;49837;57.280;27.070;2023-12-20T01:37:06;98175.92;;;1.24;100.0
63691;BME280;49837;57.280;27.070;2023-12-20T01:38:07;98170.27;;;1.31;100.0
63691;BME280;49837;57.280;27.070;2023-12-20T01:39:07;98174.39;;;1.33;100.0
63691;BME280;49837;57.280;27.070;2023-12-20T01:40:11;98167.84;;;1.4;100.0
63691;BME280;49837;57.280;27.070;2023-12-20T01:41:11;98174.51;;;1.39;100.0
63691;BME280;49837;57.280;27.070;2023-12-20T01:42:12;98167.88;;;1.21;100.0
63691;BME280;49837;57.280;27.070;2023-12-20T01:43:12;98168.82;;;1.23;100.0
63691;BME280;49837;57.280;27.070;2023-12-20T01:44:12;98166.52;;;1.26;100.0
63691;BME280;49837;57.280;27.070;2023-12-20T01:45:13;98168.94;;;1.25;100.0
63691;BME280;49837;57.280;27.070;2023-12-20T01:46:13;98172.11;;;1.36;100.0
63691;BME280;49837;57.280;27.070;2023-12-20T01:47:13;98172.11;;;1.39;100.0
63691;BME280;49837;57.280;27.070;2023-12-20T01:48:15;98172.55;;;1.45;100.0
63691;BME280;49837;57.280;27.070;2023-12-20T01:49:14;98169.73;;;1.46;100.0
63691;BME280;49837;57.280;27.070;2023-12-20T01:50:15;98167.97;;;1.48;100.0
63691;BME280;49837;57.280;27.070;2023-12-20T01:51:15;98170.27;;;1.44;100.0
63691;BME280;49837;57.280;27.070;2023-12-20T01:52:16;98163.38;;;1.4;100.0
63691;BME280;49837;57.280;27.070;2023-12-20T01:53:16;98162.84;;;1.39;100.0
63691;BME280;49837;57.280;27.070;2023-12-20T01:54:16;98165.48;;;1.45;100.0
63691;BME280;49837;57.280;27.070;2023-12-20T01:55:16;98165.09;;;1.5;100.0
63691;BME280;49837;57.280;27.070;2023-12-20T01:56:17;98160.32;;;1.48;100.0
63691;BME280;49837;57.280;27.070;2023-12-20T01:57:17;98166.64;;;1.45;100.0
63691;BME280;49837;57.280;27.070;2023-12-20T01:58:19;98159.99;;;1.44;100.0
63691;BME280;49837;57.280;27.070;2023-12-20T01:59:19;98157.25;;;1.43;100.0
63691;BME280;49837;57.280;27.070;2023-12-20T02:00:18;98157.75;;;1.39;100.0
63691;BME280;49837;57.280;27.070;2023-12-20T02:01:19;98149.97;;;1.41;100.0
63691;BME280;49837;57.280;27.070;2023-12-20T02:02:20;98153.45;;;1.4;100.0
63691;BME280;49837;57.280;27.070;2023-12-20T02:03:20;98151.02;;;1.43;100.0
63691;BME280;49837;57.280;27.070;2023-12-20T02:04:19;98157.97;;;1.47;100.0
63691;BME280;49837;57.280;27.070;2023-12-20T02:05:20;98151.83;;;1.43;100.0
63691;BME280;49837;57.280;27.070;2023-12-20T02:06:21;98154.95;;;1.43;100.0
63691;BME280;49837;57.280;27.070;2023-12-20T02:07:21;98152.47;;;1.4;100.0
63691;BME280;49837;57.280;27.070;2023-12-20T02:08:21;98148.8;;;1.42;100.0
63691;BME280;49837;57.280;27.070;2023-12-20T02:09:22;98143.16;;;1.38;100.0
63691;BME280;49837;57.280;27.070;2023-12-20T02:10:22;98144.59;;;1.36;100.0
63691;BME280;49837;57.280;27.070;2023-12-20T02:11:22;98145.8;;;1.31;100.0
63691;BME280;49837;57.280;27.070;2023-12-20T02:12:22;98148.8;;;1.25;100.0
63691;BME280;49837;57.280;27.070;2023-12-20T02:13:23;98146.24;;;1.26;100.0
63691;BME280;49837;57.280;27.070;2023-12-20T02:14:23;98152.72;;;1.3;100.0
63691;BME280;49837;57.280;27.070;2023-12-20T02:15:23;98156.61;;;1.32;100.0
63691;BME280;49837;57.280;27.070;2023-12-20T02:16:24;98155.74;;;1.31;100.0
63691;BME280;49837;57.280;27.070;2023-12-20T02:17:25;98155.17;;;1.33;100.0
63691;BME280;49837;57.280;27.070;2023-12-20T02:18:25;98154.7;;;1.45;100.0
63691;BME280;49837;57.280;27.070;2023-12-20T02:19:25;98156.8;;;1.48;100.0
63691;BME280;49837;57.280;27.070;2023-12-20T02:20:25;98155.61;;;1.52;100.0
63691;BME280;49837;57.280;27.070;2023-12-20T02:21:32;98153.02;;;1.52;100.0
63691;BME280;49837;57.280;27.070;2023-12-20T02:22:29;98153.09;;;1.54;100.0
63691;BME280;49837;57.280;27.070;2023-12-20T02:23:29;98154.33;;;1.47;100.0
63691;BME280;49837;57.280;27.070;2023-12-20T02:24:30;98153.77;;;1.47;100.0
63691;BME280;49837;57.280;27.070;2023-12-20T02:25:30;98148.31;;;1.42;100.0
63691;BME280;49837;57.280;27.070;2023-12-20T02:26:32;98148.62;;;1.32;100.0
63691;BME280;49837;57.280;27.070;2023-12-20T02:27:31;98141.28;;;1.33;100.0
63691;BME280;49837;57.280;27.070;2023-12-20T02:28:31;98137.3;;;1.33;100.0
63691;BME280;49837;57.280;27.070;2023-12-20T02:29:35;98135.33;;;1.33;100.0
63691;BME280;49837;57.280;27.070;2023-12-20T02:30:33;98139.6;;;1.29;100.0
63691;BME280;49837;57.280;27.070;2023-12-20T02:31:33;98135.91;;;1.18;100.0
63691;BME280;49837;57.280;27.070;2023-12-20T02:32:33;98136.66;;;1.18;100.0
63691;BME280;49837;57.280;27.070;2023-12-20T02:33:34;98137.88;;;1.19;100.0
63691;BME280;49837;57.280;27.070;2023-12-20T02:34:34;98133.48;;;1.28;100.0
63691;BME280;49837;57.280;27.070;2023-12-20T02:35:34;98139.12;;;1.31;100.0
63691;BME280;49837;57.280;27.070;2023-12-20T02:36:35;98136.3;;;1.3;100.0
63691;BME280;49837;57.280;27.070;2023-12-20T02:37:35;98144.21;;;1.34;100.0
63691;BME280;49837;57.280;27.070;2023-12-20T02:38:35;98142.17;;;1.31;100.0
63691;BME280;49837;57.280;27.070;2023-12-20T02:39:36;98143.61;;;1.3;100.0
63691;BME280;49837;57.280;27.070;2023-12-20T02:40:36;98139.05;;;1.34;100.0
63691;BME280;49837;57.280;27.070;2023-12-20T02:41:37;98144.98;;;1.37;100.0
63691;BME280;49837;57.280;27.070;2023-12-20T02:42:37;98150.06;;;1.31;100.0
63691;BME280;49837;57.280;27.070;2023-12-20T02:43:37;98147.94;;;1.28;100.0
63691;BME280;49837;57.280;27.070;2023-12-20T02:44:38;98146.11;;;1.25;100.0
63691;BME280;49837;57.280;27.070;2023-12-20T02:45:38;98144.25;;;1.27;100.0
63691;BME280;49837;57.280;27.070;2023-12-20T02:46:38;98147.0;;;1.25;100.0
63691;BME280;49837;57.280;27.070;2023-12-20T02:47:39;98146.95;;;1.24;100.0
63691;BME280;49837;57.280;27.070;2023-12-20T02:48:39;98147.84;;;1.24;100.0
63691;BME280;49837;57.280;27.070;2023-12-20T02:49:39;98152.79;;;1.27;100.0
63691;BME280;49837;57.280;27.070;2023-12-20T02:50:40;98152.28;;;1.24;100.0
63691;BME280;49837;57.280;27.070;2023-12-20T02:51:40;98152.52;;;1.17;100.0
63691;BME280;49837;57.280;27.070;2023-12-20T02:52:42;98151.79;;;1.21;100.0
63691;BME280;49837;57.280;27.070;2023-12-20T02:53:41;98154.71;;;1.25;100.0
63691;BME280;49837;57.280;27.070;2023-12-20T02:54:41;98156.83;;;1.23;100.0
63691;BME280;49837;57.280;27.070;2023-12-20T02:55:42;98154.97;;;1.25;100.0
63691;BME280;49837;57.280;27.070;2023-12-20T02:56:42;98159.92;;;1.24;100.0
63691;BME280;49837;57.280;27.070;2023-12-20T02:57:42;98153.42;;;1.2;100.0
63691;BME280;49837;57.280;27.070;2023-12-20T02:58:43;98161.73;;;1.24;100.0
63691;BME280;49837;57.280;27.070;2023-12-20T02:59:43;98162.83;;;1.26;100.0
63691;BME280;49837;57.280;27.070;2023-12-20T03:00:43;98158.78;;;1.24;100.0
63691;BME280;49837;57.280;27.070;2023-12-20T03:01:45;98145.36;;;1.18;100.0
63691;BME280;49837;57.280;27.070;2023-12-20T03:02:44;98157.84;;;1.08;100.0
63691;BME280;49837;57.280;27.070;2023-12-20T03:03:44;98158.27;;;1.07;100.0
63691;BME280;49837;57.280;27.070;2023-12-20T03:04:45;98159.3;;;1.13;100.0
63691;BME280;49837;57.280;27.070;2023-12-20T03:05:45;98153.77;;;1.18;100.0
63691;BME280;49837;57.280;27.070;2023-12-20T03:06:46;98160.8;;;1.18;100.0
63691;BME280;49837;57.280;27.070;2023-12-20T03:07:47;98157.47;;;1.17;100.0
63691;BME280;49837;57.280;27.070;2023-12-20T03:08:46;98157.54;;;1.17;100.0
63691;BME280;49837;57.280;27.070;2023-12-20T03:09:47;98157.94;;;1.18;100.0
63691;BME280;49837;57.280;27.070;2023-12-20T03:10:49;98157.95;;;1.16;100.0
63691;BME280;49837;57.280;27.070;2023-12-20T03:11:49;98167.55;;;1.13;100.0
63691;BME280;49837;57.280;27.070;2023-12-20T03:12:50;98161.27;;;1.13;100.0
63691;BME280;49837;57.280;27.070;2023-12-20T03:13:50;98167.61;;;1.16;100.0
63691;BME280;49837;57.280;27.070;2023-12-20T03:14:50;98166.88;;;1.19;100.0
63691;BME280;49837;57.280;27.070;2023-12-20T03:15:51;98175.45;;;1.23;100.0
63691;BME280;49837;57.280;27.070;2023-12-20T03:16:51;98172.91;;;1.17;100.0
63691;BME280;49837;57.280;27.070;2023-12-20T03:17:52;98175.45;;;1.12;100.0
63691;BME280;49837;57.280;27.070;2023-12-20T03:18:52;98175.88;;;1.12;100.0
63691;BME280;49837;57.280;27.070;2023-12-20T03:19:52;98173.16;;;1.16;100.0
63691;BME280;49837;57.280;27.070;2023-12-20T03:20:52;98172.18;;;1.17;100.0
63691;BME280;49837;57.280;27.070;2023-12-20T03:21:53;98172.08;;;1.17;100.0
63691;BME280;49837;57.280;27.070;2023-12-20T03:22:53;98174.17;;;1.18;100.0
63691;BME280;49837;57.280;27.070;2023-12-20T03:23:54;98172.58;;;1.13;100.0
63691;BME280;49837;57.280;27.070;2023-12-20T03:24:54;98177.91;;;1.17;100.0
63691;BME280;49837;57.280;27.070;2023-12-20T03:25:54;98175.51;;;1.17;100.0
63691;BME280;49837;57.280;27.070;2023-12-20T03:26:55;98174.33;;;1.18;100.0
63691;BME280;49837;57.280;27.070;2023-12-20T03:27:55;98175.25;;;1.15;100.0
63691;BME280;49837;57.280;27.070;2023-12-20T03:28:55;98177.48;;;1.15;100.0
63691;BME280;49837;57.280;27.070;2023-12-20T03:29:56;98178.53;;;1.11;100.0
63691;BME280;49837;57.280;27.070;2023-12-20T03:30:56;98178.06;;;1.13;100.0
63691;BME280;49837;57.280;27.070;2023-12-20T03:31:56;98183.04;;;1.15;100.0
63691;BME280;49837;57.280;27.070;2023-12-20T03:32:57;98178.18;;;1.15;100.0
63691;BME280;49837;57.280;27.070;2023-12-20T03:33:57;98178.98;;;1.16;100.0
63691;BME280;49837;57.280;27.070;2023-12-20T03:34:58;98185.1;;;1.14;100.0
63691;BME280;49837;57.280;27.070;2023-12-20T03:35:58;98181.63;;;1.2;100.0
63691;BME280;49837;57.280;27.070;2023-12-20T03:36:58;98184.69;;;1.19;100.0
63691;BME280;49837;57.280;27.070;2023-12-20T03:37:59;98193.29;;;1.15;100.0
63691;BME280;49837;57.280;27.070;2023-12-20T03:38:59;98192.7;;;1.09;100.0
63691;BME280;49837;57.280;27.070;2023-12-20T03:39:59;98189.62;;;1.14;100.0
63691;BME280;49837;57.280;27.070;2023-12-20T03:41:00;98192.59;;;1.15;100.0
63691;BME280;49837;57.280;27.070;2023-12-20T03:42:00;98195.09;;;1.15;100.0
63691;BME280;49837;57.280;27.070;2023-12-20T03:43:00;98195.66;;;1.17;100.0
63691;BME280;49837;57.280;27.070;2023-12-20T03:44:01;98191.95;;;1.21;100.0
63691;BME280;49837;57.280;27.070;2023-12-20T03:45:01;98193.24;;;1.17;100.0
63691;BME280;49837;57.280;27.070;2023-12-20T03:46:02;98194.94;;;1.2;100.0
63691;BME280;49837;57.280;27.070;2023-12-20T03:47:02;98191.98;;;1.2;100.0
63691;BME280;49837;57.280;27.070;2023-12-20T03:48:03;98188.62;;;1.22;100.0
63691;BME280;49837;57.280;27.070;2023-12-20T03:49:03;98190.97;;;1.24;100.0
63691;BME280;49837;57.280;27.070;2023-12-20T03:50:04;98186.67;;;1.17;100.0
63691;BME280;49837;57.280;27.070;2023-12-20T03:51:04;98190.83;;;1.09;100.0
63691;BME280;49837;57.280;27.070;2023-12-20T03:52:04;98187.88;;;0.99;100.0
63691;BME280;49837;57.280;27.070;2023-12-20T03:53:04;98191.92;;;1.0;100.0
63691;BME280;49837;57.280;27.070;2023-12-20T03:54:04;98181.53;;;1.02;100.0
63691;BME280;49837;57.280;27.070;2023-12-20T03:55:05;98182.08;;;1.07;100.0
63691;BME280;49837;57.280;27.070;2023-12-20T03:56:06;98185.3;;;0.91;100.0
63691;BME280;49837;57.280;27.070;2023-12-20T03:57:05;98183.09;;;0.84;100.0
63691;BME280;49837;57.280;27.070;2023-12-20T03:58:06;98187.48;;;0.89;100.0
63691;BME280;49837;57.280;27.070;2023-12-20T03:59:06;98187.52;;;0.92;100.0
63691;BME280;49837;57.280;27.070;2023-12-20T04:00:10;98180.57;;;0.91;100.0
63691;BME280;49837;57.280;27.070;2023-12-20T04:01:11;98179.82;;;0.91;100.0
63691;BME280;49837;57.280;27.070;2023-12-20T04:02:08;98183.66;;;0.88;100.0
63691;BME280;49837;57.280;27.070;2023-12-20T04:03:09;98184.81;;;0.88;100.0
63691;BME280;49837;57.280;27.070;2023-12-20T04:04:09;98179.23;;;0.91;100.0
63691;BME280;49837;57.280;27.070;2023-12-20T04:05:10;98179.7;;;0.92;100.0
63691;BME280;49837;57.280;27.070;2023-12-20T04:06:10;98175.48;;;0.9;100.0
63691;BME280;49837;57.280;27.070;2023-12-20T04:07:10;98181.51;;;0.89;100.0
63691;BME280;49837;57.280;27.070;2023-12-20T04:08:11;98179.22;;;0.96;100.0
63691;BME280;49837;57.280;27.070;2023-12-20T04:09:11;98177.69;;;0.99;100.0
63691;BME280;49837;57.280;27.070;2023-12-20T04:10:11;98184.59;;;0.99;100.0
63691;BME280;49837;57.280;27.070;2023-12-20T04:11:11;98186.16;;;0.97;100.0
63691;BME280;49837;57.280;27.070;2023-12-20T04:12:12;98184.79;;;0.92;100.0
63691;BME280;49837;57.280;27.070;2023-12-20T04:13:12;98186.22;;;0.88;100.0
63691;BME280;49837;57.280;27.070;2023-12-20T04:14:13;98188.19;;;0.91;100.0
63691;BME280;49837;57.280;27.070;2023-12-20T04:15:13;98187.02;;;0.96;100.0
63691;BME280;49837;57.280;27.070;2023-12-20T04:16:13;98187.3;;;0.91;100.0
63691;BME280;49837;57.280;27.070;2023-12-20T04:17:15;98189.11;;;0.94;100.0
63691;BME280;49837;57.280;27.070;2023-12-20T04:18:14;98192.18;;;0.96;100.0
63691;BME280;49837;57.280;27.070;2023-12-20T04:19:14;98181.95;;;0.95;100.0
63691;BME280;49837;57.280;27.070;2023-12-20T04:20:15;98191.76;;;0.93;100.0
63691;BME280;49837;57.280;27.070;2023-12-20T04:21:15;98189.73;;;0.92;100.0
63691;BME280;49837;57.280;27.070;2023-12-20T04:22:16;98186.59;;;0.93;100.0
63691;BME280;49837;57.280;27.070;2023-12-20T04:23:16;98182.12;;;0.88;100.0
63691;BME280;49837;57.280;27.070;2023-12-20T04:24:16;98182.05;;;0.91;100.0
63691;BME280;49837;57.280;27.070;2023-12-20T04:25:17;98178.86;;;0.87;100.0
63691;BME280;49837;57.280;27.070;2023-12-20T04:26:17;98176.95;;;0.9;100.0
63691;BME280;49837;57.280;27.070;2023-12-20T04:27:17;98178.36;;;0.9;100.0
63691;BME280;49837;57.280;27.070;2023-12-20T04:28:17;98175.45;;;0.91;100.0
63691;BME280;49837;57.280;27.070;2023-12-20T04:29:18;98178.34;;;0.91;100.0
63691;BME280;49837;57.280;27.070;2023-12-20T04:30:18;98170.86;;;0.84;100.0
63691;BME280;49837;57.280;27.070;2023-12-20T04:31:19;98172.28;;;0.83;100.0
63691;BME280;49837;57.280;27.070;2023-12-20T04:32:19;98171.81;;;0.85;100.0
63691;BME280;49837;57.280;27.070;2023-12-20T04:33:19;98167.77;;;0.84;100.0
63691;BME280;49837;57.280;27.070;2023-12-20T04:34:20;98172.79;;;0.75;100.0
63691;BME280;49837;57.280;27.070;2023-12-20T04:35:20;98171.37;;;0.77;100.0
63691;BME280;49837;57.280;27.070;2023-12-20T04:36:20;98175.66;;;0.78;100.0
63691;BME280;49837;57.280;27.070;2023-12-20T04:37:21;98176.54;;;0.72;100.0
63691;BME280;49837;57.280;27.070;2023-12-20T04:38:21;98174.08;;;0.69;100.0
63691;BME280;49837;57.280;27.070;2023-12-20T04:39:21;98172.48;;;0.67;100.0
63691;BME280;49837;57.280;27.070;2023-12-20T04:40:22;98171.59;;;0.7;100.0
63691;BME280;49837;57.280;27.070;2023-12-20T04:41:22;98166.03;;;0.66;100.0
63691;BME280;49837;57.280;27.070;2023-12-20T04:42:23;98167.25;;;0.54;100.0
63691;BME280;49837;57.280;27.070;2023-12-20T04:43:23;98169.13;;;0.58;100.0
63691;BME280;49837;57.280;27.070;2023-12-20T04:44:23;98170.8;;;0.61;100.0
63691;BME280;49837;57.280;27.070;2023-12-20T04:45:24;98173.39;;;0.58;100.0
63691;BME280;49837;57.280;27.070;2023-12-20T04:46:24;98166.7;;;0.53;100.0
63691;BME280;49837;57.280;27.070;2023-12-20T04:47:24;98167.53;;;0.56;100.0
63691;BME280;49837;57.280;27.070;2023-12-20T04:48:25;98164.74;;;0.56;100.0
63691;BME280;49837;57.280;27.070;2023-12-20T04:49:25;98173.69;;;0.52;100.0
63691;BME280;49837;57.280;27.070;2023-12-20T04:50:25;98171.01;;;0.59;100.0
63691;BME280;49837;57.280;27.070;2023-12-20T04:51:26;98169.23;;;0.61;100.0
63691;BME280;49837;57.280;27.070;2023-12-20T04:52:26;98166.2;;;0.6;100.0
63691;BME280;49837;57.280;27.070;2023-12-20T04:53:26;98169.21;;;0.62;100.0
63691;BME280;49837;57.280;27.070;2023-12-20T04:54:27;98170.42;;;0.62;100.0
63691;BME280;49837;57.280;27.070;2023-12-20T04:55:27;98165.1;;;0.59;100.0
63691;BME280;49837;57.280;27.070;2023-12-20T04:56:28;98164.77;;;0.55;100.0
63691;BME280;49837;57.280;27.070;2023-12-20T04:57:28;98167.7;;;0.56;100.0
63691;BME280;49837;57.280;27.070;2023-12-20T04:58:28;98174.86;;;0.51;100.0
63691;BME280;49837;57.280;27.070;2023-12-20T04:59:29;98180.93;;;0.51;100.0
63691;BME280;49837;57.280;27.070;2023-12-20T05:00:29;98178.41;;;0.54;100.0
63691;BME280;49837;57.280;27.070;2023-12-20T05:01:29;98176.13;;;0.53;100.0
63691;BME280;49837;57.280;27.070;2023-12-20T05:02:30;98181.38;;;0.53;100.0
63691;BME280;49837;57.280;27.070;2023-12-20T05:03:30;98184.36;;;0.44;100.0
63691;BME280;49837;57.280;27.070;2023-12-20T05:04:30;98181.33;;;0.35;100.0
63691;BME280;49837;57.280;27.070;2023-12-20T05:05:31;98184.77;;;0.43;100.0
63691;BME280;49837;57.280;27.070;2023-12-20T05:06:31;98186.6;;;0.51;100.0
63691;BME280;49837;57.280;27.070;2023-12-20T05:07:31;98186.32;;;0.52;100.0
63691;BME280;49837;57.280;27.070;2023-12-20T05:08:32;98187.91;;;0.5;100.0
63691;BME280;49837;57.280;27.070;2023-12-20T05:09:32;98185.59;;;0.48;100.0
63691;BME280;49837;57.280;27.070;2023-12-20T05:10:32;98188.49;;;0.47;100.0
63691;BME280;49837;57.280;27.070;2023-12-20T05:11:33;98194.75;;;0.54;100.0
63691;BME280;49837;57.280;27.070;2023-12-20T05:12:33;98198.86;;;0.57;100.0
63691;BME280;49837;57.280;27.070;2023-12-20T05:13:33;98198.28;;;0.62;100.0
63691;BME280;49837;57.280;27.070;2023-12-20T05:14:38;98202.48;;;0.65;100.0
63691;BME280;49837;57.280;27.070;2023-12-20T05:15:39;98208.69;;;0.62;100.0
63691;BME280;49837;57.280;27.070;2023-12-20T05:16:39;98201.79;;;0.61;100.0
63691;BME280;49837;57.280;27.070;2023-12-20T05:17:39;98206.04;;;0.55;100.0
63691;BME280;49837;57.280;27.070;2023-12-20T05:18:40;98207.56;;;0.53;100.0
63691;BME280;49837;57.280;27.070;2023-12-20T05:19:40;98211.15;;;0.46;100.0
63691;BME280;49837;57.280;27.070;2023-12-20T05:20:40;98210.98;;;0.49;100.0